createdAt,value
2023-04-08T00:00:54.708Z,6.17
2023-04-08T00:03:22.623Z,6.14
2023-04-08T00:05:50.085Z,6.19
2023-04-08T00:08:17.434Z,6.38
2023-04-08T00:10:45.426Z,6.33
2023-04-08T00:13:13.325Z,6.44
2023-04-08T00:15:41.388Z,6.17
2023-04-08T00:18:09.152Z,5.84
2023-04-08T00:20:37.580Z,5.69
2023-04-08T00:23:04.991Z,6.14
2023-04-08T00:25:32.726Z,6.12
2023-04-08T00:28:00.414Z,6.06
2023-04-08T00:30:28.599Z,5.99
2023-04-08T00:32:56.309Z,5.79
2023-04-08T00:35:24.713Z,6.07
2023-04-08T00:37:52.162Z,5.60
2023-04-08T00:40:19.832Z,5.51
2023-04-08T00:42:47.262Z,5.44
2023-04-08T00:45:14.662Z,5.40
2023-04-08T00:47:42.466Z,5.54
2023-04-08T00:50:10.908Z,5.58
2023-04-08T00:52:38.296Z,5.45
2023-04-08T00:55:06.610Z,5.30
2023-04-08T00:57:34.235Z,5.67
2023-04-08T01:00:01.696Z,5.61
2023-04-08T01:03:00.540Z,5.46
2023-04-08T01:05:39.572Z,5.70
2023-04-08T01:08:08.740Z,5.45
2023-04-08T01:10:37.887Z,5.14
2023-04-08T01:13:10.036Z,5.61
2023-04-08T01:15:39.255Z,5.23
2023-04-08T01:18:09.378Z,5.84
2023-04-08T01:20:37.386Z,5.79
2023-04-08T01:23:36.323Z,5.71
2023-04-08T01:26:03.791Z,5.92
2023-04-08T01:28:31.692Z,5.50
2023-04-08T01:31:01.080Z,5.41
2023-04-08T01:33:29.048Z,5.30
2023-04-08T01:35:57.865Z,5.12
2023-04-08T01:38:29.084Z,5.46
2023-04-08T01:40:57.255Z,5.51
2023-04-08T01:43:24.767Z,5.17
2023-04-08T01:45:54.616Z,5.30
2023-04-08T01:48:22.518Z,5.40
2023-04-08T01:50:51.347Z,5.43
2023-04-08T01:53:18.801Z,5.46
2023-04-08T01:55:47.063Z,5.37
2023-04-08T01:58:19.283Z,4.93
2023-04-08T02:00:47.253Z,5.05
2023-04-08T02:03:18.110Z,5.16
2023-04-08T02:05:46.905Z,4.92
2023-04-08T02:08:14.558Z,5.39
2023-04-08T02:10:41.988Z,5.62
2023-04-08T02:13:09.451Z,5.67
2023-04-08T02:15:38.986Z,5.35
2023-04-08T02:18:13.574Z,5.57
2023-04-08T02:20:45.946Z,5.65
2023-04-08T02:23:19.784Z,5.86
2023-04-08T02:25:48.174Z,5.45
2023-04-08T02:28:18.522Z,5.41
2023-04-08T02:30:50.411Z,5.16
2023-04-08T02:33:20.437Z,5.42
2023-04-08T02:35:49.845Z,5.45
2023-04-08T02:38:17.399Z,5.51
2023-04-08T02:40:45.146Z,5.11
2023-04-08T02:43:12.673Z,5.44
2023-04-08T02:45:44.047Z,5.65
2023-04-08T02:48:11.838Z,5.26
2023-04-08T02:50:40.078Z,5.59
2023-04-08T02:53:08.867Z,5.68
2023-04-08T02:55:36.920Z,5.84
2023-04-08T02:58:04.357Z,5.53
2023-04-08T03:00:31.850Z,5.44
2023-04-08T03:02:59.747Z,5.59
2023-04-08T03:05:27.902Z,6.07
2023-04-08T03:07:55.453Z,5.81
2023-04-08T03:10:23.253Z,5.48
2023-04-08T03:12:50.672Z,5.48
2023-04-08T03:15:18.272Z,5.67
2023-04-08T03:17:46.152Z,5.52
2023-04-08T03:20:13.612Z,5.92
2023-04-08T03:22:41.086Z,6.13
2023-04-08T03:25:09.233Z,5.77
2023-04-08T03:27:36.598Z,5.53
2023-04-08T03:30:04.522Z,5.20
2023-04-08T03:32:33.077Z,5.52
2023-04-08T03:35:00.590Z,5.41
2023-04-08T03:37:27.965Z,5.66
2023-04-08T03:39:56.387Z,5.49
2023-04-08T03:42:23.899Z,5.70
2023-04-08T03:44:51.367Z,5.78
2023-04-08T03:47:19.787Z,5.81
2023-04-08T03:49:47.175Z,5.67
2023-04-08T03:52:14.558Z,5.90
2023-04-08T03:54:42.199Z,5.79
2023-04-08T03:57:09.580Z,5.99
2023-04-08T03:59:37.525Z,5.73
2023-04-08T04:02:05.606Z,5.80
2023-04-08T04:04:33.927Z,5.76
2023-04-08T04:07:01.341Z,5.54
2023-04-08T04:09:28.744Z,5.94
2023-04-08T04:11:56.357Z,5.73
2023-04-08T04:14:23.721Z,5.64
2023-04-08T04:16:51.101Z,5.36
2023-04-08T04:19:18.825Z,5.51
2023-04-08T04:22:05.880Z,5.51
2023-04-08T04:24:33.519Z,5.61
2023-04-08T04:27:01.975Z,5.40
2023-04-08T04:29:31.637Z,5.33
2023-04-08T04:31:59.298Z,5.24
2023-04-08T04:34:26.651Z,5.16
2023-04-08T04:36:54.019Z,4.95
2023-04-08T04:39:21.699Z,5.10
2023-04-08T04:41:49.377Z,4.84
2023-04-08T04:44:16.861Z,4.71
2023-04-08T04:46:44.498Z,4.79
2023-04-08T04:49:11.982Z,5.08
2023-04-08T04:51:39.876Z,4.95
2023-04-08T04:54:07.533Z,4.72
2023-04-08T04:56:34.985Z,5.01
2023-04-08T04:59:02.401Z,5.13
2023-04-08T05:01:30.107Z,5.03
2023-04-08T05:03:58.030Z,5.30
2023-04-08T05:06:26.459Z,5.10
2023-04-08T05:08:54.070Z,5.23
2023-04-08T05:11:24.225Z,5.27
2023-04-08T05:13:51.600Z,5.45
2023-04-08T05:16:19.309Z,5.08
2023-04-08T05:18:46.765Z,5.37
2023-04-08T05:21:14.145Z,5.10
2023-04-08T05:23:41.787Z,5.36
2023-04-08T05:26:09.198Z,5.15
2023-04-08T05:28:36.618Z,4.94
2023-04-08T05:31:04.529Z,5.04
2023-04-08T05:33:32.071Z,4.98
2023-04-08T05:35:59.532Z,4.71
2023-04-08T05:38:27.201Z,4.97
2023-04-08T05:40:54.581Z,5.21
2023-04-08T05:43:21.971Z,5.35
2023-04-08T05:45:49.613Z,5.23
2023-04-08T05:48:16.969Z,5.52
2023-04-08T05:50:44.362Z,5.71
2023-04-08T05:53:12.039Z,5.50
2023-04-08T05:55:39.521Z,5.83
2023-04-08T05:58:08.127Z,5.69
2023-04-08T06:00:35.818Z,4.90
2023-04-08T06:03:03.713Z,5.19
2023-04-08T06:05:31.620Z,5.29
2023-04-08T06:07:59.195Z,5.23
2023-04-08T06:10:26.854Z,5.52
2023-04-08T06:12:54.263Z,5.53
2023-04-08T06:15:22.197Z,5.35
2023-04-08T06:17:49.900Z,5.15
2023-04-08T06:20:17.318Z,5.35
2023-04-08T06:22:44.718Z,5.36
2023-04-08T06:25:12.477Z,5.05
2023-04-08T06:27:39.844Z,5.09
2023-04-08T06:30:08.038Z,4.97
2023-04-08T06:32:35.742Z,4.93
2023-04-08T06:35:03.301Z,4.97
2023-04-08T06:37:30.755Z,4.82
2023-04-08T06:39:58.419Z,4.76
2023-04-08T06:42:25.848Z,4.72
2023-04-08T06:44:53.640Z,4.61
2023-04-08T06:47:21.288Z,4.58
2023-04-08T06:49:48.662Z,4.79
2023-04-08T06:52:16.047Z,4.76
2023-04-08T06:54:43.834Z,5.11
2023-04-08T06:57:11.752Z,5.23
2023-04-08T06:59:39.139Z,5.04
2023-04-08T07:02:07.193Z,5.06
2023-04-08T07:04:34.747Z,4.68
2023-04-08T07:07:02.120Z,4.84
2023-04-08T07:09:29.781Z,4.47
2023-04-08T07:11:57.689Z,4.82
2023-04-08T07:14:25.129Z,4.86
2023-04-08T07:16:52.878Z,5.08
2023-04-08T07:19:21.029Z,4.74
2023-04-08T07:21:48.588Z,4.86
2023-04-08T07:24:16.378Z,4.51
2023-04-08T07:26:43.736Z,4.74
2023-04-08T07:29:11.216Z,4.73
2023-04-08T07:31:38.878Z,4.52
2023-04-08T07:34:06.233Z,4.80
2023-04-08T07:36:33.635Z,4.87
2023-04-08T07:39:01.365Z,4.74
2023-04-08T07:41:28.765Z,4.92
2023-04-08T07:43:56.245Z,5.05
2023-04-08T07:46:23.941Z,5.08
2023-04-08T07:48:52.125Z,5.08
2023-04-08T07:51:20.190Z,5.55
2023-04-08T07:53:48.813Z,5.20
2023-04-08T07:56:18.259Z,4.94
2023-04-08T07:58:46.885Z,5.14
2023-04-08T08:01:19.904Z,5.48
2023-04-08T08:03:49.182Z,5.09
2023-04-08T08:06:16.944Z,5.68
2023-04-08T08:08:44.627Z,5.15
2023-04-08T08:11:12.283Z,5.15
2023-04-08T08:13:39.720Z,5.22
2023-04-08T08:16:09.197Z,4.78
2023-04-08T08:18:37.724Z,5.27
2023-04-08T08:21:06.351Z,5.28
2023-04-08T08:23:33.765Z,5.57
2023-04-08T08:26:02.450Z,5.25
2023-04-08T08:28:29.843Z,5.51
2023-04-08T08:30:59.658Z,5.62
2023-04-08T08:33:27.394Z,5.76
2023-04-08T08:35:55.641Z,5.35
2023-04-08T08:38:23.069Z,5.59
2023-04-08T08:40:58.331Z,5.56
2023-04-08T08:43:26.657Z,5.39
2023-04-08T08:45:54.659Z,5.30
2023-04-08T08:48:22.035Z,5.14
2023-04-08T08:50:49.459Z,5.61
2023-04-08T08:53:17.295Z,5.52
2023-04-08T08:56:13.679Z,5.47
2023-04-08T08:58:32.771Z,5.55
2023-04-08T09:01:00.303Z,5.21
2023-04-08T09:03:28.745Z,5.27
2023-04-08T09:05:58.521Z,5.52
2023-04-08T09:08:37.145Z,5.48
2023-04-08T09:11:11.486Z,5.76
2023-04-08T09:13:38.892Z,6.03
2023-04-08T09:16:18.228Z,5.90
2023-04-08T09:18:47.453Z,5.81
2023-04-08T09:21:17.050Z,6.24
2023-04-08T09:23:46.360Z,5.90
2023-04-08T09:26:16.425Z,5.61
2023-04-08T09:28:57.756Z,5.32
2023-04-08T09:31:27.858Z,5.43
2023-04-08T09:33:59.541Z,5.66
2023-04-08T09:36:27.578Z,5.15
2023-04-08T09:38:56.162Z,5.41
2023-04-08T09:41:25.012Z,5.42
2023-04-08T09:43:56.679Z,5.23
2023-04-08T09:46:33.636Z,5.42
2023-04-08T09:49:01.903Z,5.48
2023-04-08T09:51:35.068Z,5.47
2023-04-08T09:54:04.078Z,5.56
2023-04-08T09:56:38.437Z,5.58
2023-04-08T09:59:12.443Z,5.82
2023-04-08T10:01:48.859Z,5.57
2023-04-08T10:04:19.379Z,5.74
2023-04-08T10:06:54.796Z,5.78
2023-04-08T10:09:23.004Z,5.77
2023-04-08T10:11:50.944Z,5.73
2023-04-08T10:14:18.310Z,5.96
2023-04-08T10:16:46.095Z,5.60
2023-04-08T10:19:42.213Z,5.64
2023-04-08T10:22:48.936Z,5.54
2023-04-08T10:25:19.516Z,5.62
2023-04-08T10:27:47.778Z,5.58
2023-04-08T10:30:33.380Z,5.27
2023-04-08T10:33:01.511Z,5.42
2023-04-08T10:35:33.153Z,5.68
2023-04-08T10:38:02.166Z,5.45
2023-04-08T10:40:39.892Z,5.44
2023-04-08T10:43:07.780Z,5.82
2023-04-08T10:45:35.254Z,5.67
2023-04-08T10:48:31.983Z,5.43
2023-04-08T10:51:06.682Z,5.56
2023-04-08T10:53:42.047Z,5.34
2023-04-08T10:56:15.395Z,5.47
2023-04-08T10:58:50.825Z,5.72
2023-04-08T11:01:19.134Z,6.08
2023-04-08T11:03:46.764Z,5.67
2023-04-08T11:06:14.823Z,6.10
2023-04-08T11:08:42.523Z,5.86
2023-04-08T11:11:11.148Z,5.80
2023-04-08T11:13:52.708Z,5.85
2023-04-08T11:16:22.791Z,5.86
2023-04-08T11:18:51.185Z,5.27
2023-04-08T11:21:19.675Z,5.29
2023-04-08T11:23:51.040Z,5.81
2023-04-08T11:26:22.763Z,5.93
2023-04-08T11:28:52.045Z,5.87
2023-04-08T11:31:23.489Z,6.24
2023-04-08T11:36:22.062Z,6.05
2023-04-08T11:38:49.568Z,6.02
2023-04-08T11:41:17.649Z,6.31
2023-04-08T11:43:52.619Z,6.23
2023-04-08T11:46:20.672Z,6.48
2023-04-08T11:49:01.722Z,6.60
2023-04-08T11:51:29.489Z,6.42
2023-04-08T11:53:57.459Z,6.29
2023-04-08T11:56:25.200Z,5.85
2023-04-08T11:58:53.296Z,5.84
2023-04-08T12:01:21.580Z,5.69
2023-04-08T12:03:57.282Z,5.84
2023-04-08T12:06:27.238Z,5.57
2023-04-08T12:08:55.909Z,5.76
2023-04-08T12:11:24.434Z,5.85
2023-04-08T12:13:52.797Z,6.16
2023-04-08T12:16:23.598Z,6.49
2023-04-08T12:18:51.063Z,6.54
2023-04-08T12:21:18.492Z,6.66
2023-04-08T12:23:46.390Z,6.53
2023-04-08T12:26:14.597Z,6.40
2023-04-08T12:28:41.998Z,6.58
2023-04-08T12:31:09.706Z,6.36
2023-04-08T12:33:37.774Z,6.17
2023-04-08T12:36:05.314Z,6.18
2023-04-08T12:38:33.574Z,6.07
2023-04-08T12:41:01.025Z,6.31
2023-04-08T12:43:28.422Z,6.15
2023-04-08T12:45:56.629Z,6.56
2023-04-08T12:48:24.001Z,6.24
2023-04-08T12:50:51.357Z,6.14
2023-04-08T12:53:19.241Z,6.33
2023-04-08T12:55:48.024Z,6.71
2023-04-08T12:58:16.942Z,6.60
2023-04-08T13:00:46.770Z,6.51
2023-04-08T13:03:17.454Z,6.71
2023-04-08T13:05:45.265Z,6.70
2023-04-08T13:08:12.665Z,7.10
2023-04-08T13:10:40.378Z,7.18
2023-04-08T13:13:08.169Z,6.94
2023-04-08T13:15:35.606Z,6.64
2023-04-08T13:18:03.088Z,6.94
2023-04-08T13:20:30.911Z,6.83
2023-04-08T13:22:58.298Z,6.64
2023-04-08T13:25:25.729Z,6.61
2023-04-08T13:27:53.409Z,6.74
2023-04-08T13:30:20.867Z,6.70
2023-04-08T13:32:48.269Z,6.93
2023-04-08T13:35:16.229Z,6.85
2023-04-08T13:37:43.914Z,6.65
2023-04-08T13:40:12.367Z,6.43
2023-04-08T13:42:40.053Z,6.52
2023-04-08T13:45:07.889Z,6.22
2023-04-08T13:47:37.781Z,5.97
2023-04-08T13:50:11.381Z,6.20
2023-04-08T13:52:38.733Z,6.36
2023-04-08T13:55:06.905Z,6.66
2023-04-08T13:57:35.253Z,6.65
2023-04-08T14:00:03.562Z,6.96
2023-04-08T14:02:37.969Z,6.82
2023-04-08T14:05:06.385Z,6.88
2023-04-08T14:07:33.818Z,6.85
2023-04-08T14:10:01.477Z,6.98
2023-04-08T14:12:29.146Z,7.32
2023-04-08T14:14:56.549Z,7.41
2023-04-08T14:17:24.013Z,7.41
2023-04-08T14:19:51.727Z,6.83
2023-04-08T14:22:19.126Z,7.17
2023-04-08T14:24:46.637Z,7.12
2023-04-08T14:27:14.299Z,7.29
2023-04-08T14:29:44.552Z,6.99
2023-04-08T14:32:12.441Z,6.80
2023-04-08T14:34:40.169Z,7.16
2023-04-08T14:37:08.121Z,7.44
2023-04-08T14:39:35.897Z,7.23
2023-04-08T14:42:03.662Z,7.36
2023-04-08T14:44:31.071Z,7.41
2023-04-08T14:46:58.700Z,7.15
2023-04-08T14:49:26.404Z,7.41
2023-04-08T14:51:53.820Z,7.15
2023-04-08T14:54:21.284Z,7.56
2023-04-08T14:56:48.933Z,7.37
2023-04-08T14:59:16.397Z,7.03
2023-04-08T15:01:45.071Z,7.25
2023-04-08T15:04:12.895Z,7.10
2023-04-08T15:06:40.521Z,7.36
2023-04-08T15:09:07.934Z,7.52
2023-04-08T15:11:35.683Z,7.52
2023-04-08T15:14:03.085Z,7.22
2023-04-08T15:16:30.553Z,7.05
2023-04-08T15:19:00.370Z,7.20
2023-04-08T15:21:27.775Z,7.40
2023-04-08T15:23:55.302Z,7.39
2023-04-08T15:26:23.073Z,7.17
2023-04-08T15:28:52.645Z,7.20
2023-04-08T15:31:20.352Z,7.02
2023-04-08T15:33:48.833Z,7.01
2023-04-08T15:36:19.873Z,6.87
2023-04-08T15:38:47.909Z,6.56
2023-04-08T15:41:19.223Z,6.41
2023-04-08T15:43:46.921Z,6.31
2023-04-08T15:46:19.069Z,6.13
2023-04-08T15:48:47.274Z,6.36
2023-04-08T15:51:14.938Z,6.44
2023-04-08T15:53:43.157Z,6.48
2023-04-08T15:56:16.220Z,6.36
2023-04-08T15:58:45.058Z,6.67
2023-04-08T16:01:12.911Z,6.39
2023-04-08T16:03:41.077Z,6.51
2023-04-08T16:06:09.013Z,6.39
2023-04-08T16:08:37.160Z,6.89
2023-04-08T16:11:06.592Z,6.56
2023-04-08T16:13:34.239Z,7.03
2023-04-08T16:16:02.481Z,6.97
2023-04-08T16:18:30.617Z,6.83
2023-04-08T16:20:58.045Z,6.81
2023-04-08T16:23:25.474Z,6.19
2023-04-08T16:25:53.155Z,6.56
2023-04-08T16:28:22.112Z,6.69
2023-04-08T16:30:49.550Z,6.76
2023-04-08T16:33:17.244Z,6.96
2023-04-08T16:35:44.714Z,7.04
2023-04-08T16:38:12.248Z,7.09
2023-04-08T16:40:39.916Z,7.11
2023-04-08T16:43:07.435Z,7.25
2023-04-08T16:45:36.092Z,7.29
2023-04-08T16:48:03.989Z,7.22
2023-04-08T16:50:31.364Z,7.40
2023-04-08T16:52:58.914Z,7.48
2023-04-08T16:55:26.658Z,7.34
2023-04-08T16:57:54.650Z,7.06
2023-04-08T17:00:22.412Z,7.53
2023-04-08T17:02:50.707Z,7.53
2023-04-08T17:05:18.317Z,7.53
2023-04-08T17:07:45.933Z,7.47
2023-04-08T17:10:13.729Z,7.64
2023-04-08T17:12:41.631Z,7.25
2023-04-08T17:15:09.617Z,7.28
2023-04-08T17:17:37.725Z,7.37
2023-04-08T17:20:05.824Z,7.12
2023-04-08T17:22:33.230Z,6.96
2023-04-08T17:25:01.248Z,6.49
2023-04-08T17:27:28.612Z,6.51
2023-04-08T17:29:57.848Z,6.82
2023-04-08T17:32:25.830Z,7.09
2023-04-08T17:34:53.587Z,7.14
2023-04-08T17:37:21.230Z,7.11
2023-04-08T17:39:48.932Z,7.14
2023-04-08T17:42:16.958Z,7.40
2023-04-08T17:44:44.808Z,7.15
2023-04-08T17:47:12.572Z,7.42
2023-04-08T17:49:39.950Z,7.64
2023-04-08T17:52:07.386Z,7.58
2023-04-08T17:54:35.007Z,7.31
2023-04-08T17:57:03.120Z,7.54
2023-04-08T17:59:30.776Z,7.91
2023-04-08T18:01:58.507Z,8.11
2023-04-08T18:04:26.321Z,8.05
2023-04-08T18:06:53.728Z,8.19
2023-04-08T18:09:21.178Z,8.36
2023-04-08T18:11:48.830Z,8.04
2023-04-08T18:14:16.629Z,8.14
2023-04-08T18:16:45.426Z,8.33
2023-04-08T18:19:13.399Z,8.33
2023-04-08T18:21:40.798Z,8.02
2023-04-08T18:24:09.394Z,8.00
2023-04-08T18:26:37.128Z,7.76
2023-04-08T18:29:04.474Z,7.94
2023-04-08T18:31:31.836Z,7.82
2023-04-08T18:33:59.550Z,7.99
2023-04-08T18:36:27.390Z,7.87
2023-04-08T18:38:54.805Z,8.02
2023-04-08T18:41:24.964Z,7.81
2023-04-08T18:43:52.587Z,7.96
2023-04-08T18:46:20.527Z,8.29
2023-04-08T18:48:49.167Z,8.09
2023-04-08T18:51:19.376Z,8.19
2023-04-08T18:53:46.966Z,8.23
2023-04-08T18:56:18.650Z,8.23
2023-04-08T18:58:47.092Z,8.14
2023-04-08T19:01:14.862Z,8.01
2023-04-08T19:03:47.451Z,7.98
2023-04-08T19:06:17.367Z,8.07
2023-04-08T19:08:46.520Z,8.33
2023-04-08T19:11:15.933Z,8.23
2023-04-08T19:13:43.421Z,8.21
2023-04-08T19:16:11.270Z,8.46
2023-04-08T19:18:38.957Z,8.26
2023-04-08T19:21:06.336Z,8.32
2023-04-08T19:23:33.697Z,8.32
2023-04-08T19:26:05.239Z,8.23
2023-04-08T19:28:33.460Z,8.29
2023-04-08T19:31:02.074Z,8.32
2023-04-08T19:33:29.718Z,7.85
2023-04-08T19:35:57.647Z,8.03
2023-04-08T19:38:25.345Z,8.02
2023-04-08T19:40:52.815Z,7.87
2023-04-08T19:43:20.628Z,8.20
2023-04-08T19:45:53.422Z,7.98
2023-04-08T19:48:21.141Z,8.18
2023-04-08T19:50:50.986Z,7.88
2023-04-08T19:53:19.464Z,7.76
2023-04-08T19:55:47.023Z,7.62
2023-04-08T19:58:14.744Z,7.63
2023-04-08T20:00:42.233Z,7.58
2023-04-08T20:03:10.310Z,7.86
2023-04-08T20:05:37.986Z,7.66
2023-04-08T20:08:05.445Z,7.93
2023-04-08T20:10:33.196Z,7.91
2023-04-08T20:13:00.767Z,7.84
2023-04-08T20:15:28.271Z,7.78
2023-04-08T20:17:56.546Z,7.69
2023-04-08T20:20:24.177Z,7.75
2023-04-08T20:22:51.647Z,7.57
2023-04-08T20:25:19.508Z,7.44
2023-04-08T20:27:46.875Z,7.32
2023-04-08T20:30:14.303Z,7.74
2023-04-08T20:32:42.050Z,7.64
2023-04-08T20:35:09.554Z,7.66
2023-04-08T20:37:37.040Z,7.62
2023-04-08T20:40:05.182Z,7.43
2023-04-08T20:42:33.220Z,7.75
2023-04-08T20:45:00.615Z,7.88
2023-04-08T20:47:28.708Z,7.41
2023-04-08T20:49:56.153Z,7.49
2023-04-08T20:52:23.565Z,7.68
2023-04-08T20:54:51.279Z,7.60
2023-04-08T20:57:18.726Z,7.65
2023-04-08T20:59:46.140Z,7.49
2023-04-08T21:02:14.144Z,7.53
2023-04-08T21:04:41.818Z,7.64
2023-04-08T21:07:09.187Z,7.49
2023-04-08T21:09:36.861Z,7.54
2023-04-08T21:12:04.687Z,7.46
2023-04-08T21:14:32.162Z,7.46
2023-04-08T21:16:59.765Z,7.54
2023-04-08T21:19:27.128Z,7.41
2023-04-08T21:21:54.492Z,7.47
2023-04-08T21:24:22.234Z,7.52
2023-04-08T21:26:49.602Z,7.53
2023-04-08T21:29:16.921Z,7.48
2023-04-08T21:31:44.632Z,7.47
2023-04-08T21:34:13.317Z,7.47
2023-04-08T21:36:40.722Z,7.52
2023-04-08T21:39:08.403Z,7.59
2023-04-08T21:41:35.980Z,7.55
2023-04-08T21:44:04.777Z,7.49
2023-04-08T21:46:32.396Z,7.49
2023-04-08T21:48:59.849Z,7.39
2023-04-08T21:51:27.572Z,7.35
2023-04-08T21:53:55.290Z,7.21
2023-04-08T21:56:24.556Z,7.28
2023-04-08T21:58:52.364Z,7.24
2023-04-08T22:01:20.653Z,7.25
2023-04-08T22:03:48.411Z,7.30
2023-04-08T22:06:25.750Z,7.29
2023-04-08T22:08:59.565Z,7.44
2023-04-08T22:11:27.090Z,7.41
2023-04-08T22:13:54.471Z,7.31
2023-04-08T22:16:22.148Z,7.40
2023-04-08T22:18:49.653Z,7.43
2023-04-08T22:21:17.053Z,7.23
2023-04-08T22:23:45.448Z,7.27
2023-04-08T22:26:13.955Z,7.47
2023-04-08T22:28:43.130Z,7.37
2023-04-08T22:31:12.050Z,7.38
2023-04-08T22:33:39.645Z,7.35
2023-04-08T22:36:07.211Z,7.49
2023-04-08T22:38:34.929Z,7.39
2023-04-08T22:41:02.322Z,7.25
2023-04-08T22:43:29.729Z,7.42
2023-04-08T22:45:57.412Z,7.31
2023-04-08T22:48:24.809Z,7.26
2023-04-08T22:50:52.623Z,7.41
2023-04-08T22:53:21.268Z,7.26
2023-04-08T22:55:49.070Z,7.08
2023-04-08T22:58:16.457Z,7.10
2023-04-08T23:00:44.065Z,7.14
2023-04-08T23:03:11.596Z,7.31
2023-04-08T23:05:39.050Z,7.39
2023-04-08T23:08:06.881Z,7.15
2023-04-08T23:10:34.275Z,7.07
2023-04-08T23:13:01.642Z,6.87
2023-04-08T23:15:29.314Z,7.02
2023-04-08T23:17:56.777Z,7.18
2023-04-08T23:20:24.272Z,7.11
2023-04-08T23:22:52.003Z,6.92
2023-04-08T23:25:19.396Z,6.94
2023-04-08T23:27:46.751Z,6.92
2023-04-08T23:30:14.462Z,7.01
2023-04-08T23:32:41.980Z,6.81
2023-04-08T23:35:09.634Z,6.85
2023-04-08T23:37:37.278Z,7.01
2023-04-08T23:40:05.127Z,6.86
2023-04-08T23:42:32.550Z,7.10
2023-04-08T23:45:00.262Z,7.11
2023-04-08T23:47:27.722Z,7.10
2023-04-08T23:49:55.324Z,7.09
2023-04-08T23:52:23.010Z,7.05
2023-04-08T23:54:51.029Z,7.13
2023-04-08T23:57:20.393Z,7.06
2023-04-08T23:59:48.124Z,7.21
